Westport, Wisconsin
Current Conditions -  °F | °C
As of 9:55 AM on Friday 28 Nov 2014 (Local Time) from KC29 Reporting Station
Overcast Overcast  
Wind Chill:   Ceiling: 10000
Heat Index: 22°   Visibility: 10mi
Dew Point: 13°   Wind: 13mph
Humidity: 71%   Direction: 140°SE
Pressure: 30.1"   Gusts: NA
Location:  43.1852°N, 89.4585°W
Report Text: KC29 281555Z AUTO 14011KT 10SM OVC100 M06/M10 A3010 RMK AO1 T10581103
Loading
Personal Weather Stations






























Interactive Weather Map New forecast layout! Learn more

10-Day Weather Forecast

Advertisements
Track Severe Weather on mobile